Flight Briefing for CPX402

Departure Arrival
Los Angeles International Airport (KLAX)
Click to view FAA NOTAMS
Seattle-Tacoma International Airport (KSEA)
Click to view FAA NOTAMS
Departure Time Arrival Time
N/A N/A
Aircraft Distance
B747-400BCF 831nm
Departure METAR Arrival METAR
KLAX 250353Z 24008KT 10SM FEW045 15/11 A2991 RMK AO2 SLP127 T01500111 KSEA 250353Z 20007KT 10SM FEW035 OVC050 13/07 A2996 RMK AO2 SLP152 T01330072
Suggested Route
TRTON2 SCTRR SNS RBL BTG HAWKZ7


View recent IFR Routes data
Notes



Charts and Procedures

Charts for KLAX
No chart available
Charts for KSEA
No chart available

Windy.com Weather Map